createdAt,value
2022-12-26T00:00:42.809Z,99.90
2022-12-26T00:02:15.585Z,99.90
2022-12-26T00:03:47.409Z,99.90
2022-12-26T00:05:19.173Z,99.90
2022-12-26T00:06:50.885Z,99.90
2022-12-26T00:08:22.548Z,99.90
2022-12-26T00:09:54.200Z,99.90
2022-12-26T00:11:26.357Z,99.90
2022-12-26T00:13:39.739Z,99.90
2022-12-26T00:14:49.759Z,99.90
2022-12-26T00:16:22.492Z,99.90
2022-12-26T00:17:54.744Z,99.90
2022-12-26T00:19:26.403Z,99.90
2022-12-26T00:20:58.031Z,99.90
2022-12-26T00:22:29.677Z,99.90
2022-12-26T00:24:01.713Z,99.90
2022-12-26T00:25:34.531Z,99.90
2022-12-26T00:27:06.191Z,99.90
2022-12-26T00:28:38.016Z,99.90
2022-12-26T00:30:10.294Z,99.90
2022-12-26T00:31:42.009Z,99.90
2022-12-26T00:33:13.724Z,99.90
2022-12-26T00:34:45.403Z,99.90
2022-12-26T00:36:22.019Z,99.90
2022-12-26T00:37:54.161Z,99.90
2022-12-26T00:39:25.813Z,99.90
2022-12-26T00:40:57.710Z,99.90
2022-12-26T00:42:29.880Z,99.90
2022-12-26T00:44:01.683Z,99.90
2022-12-26T00:45:33.351Z,99.90
2022-12-26T00:47:05.103Z,99.90
2022-12-26T00:48:37.092Z,99.90
2022-12-26T00:50:12.696Z,99.90
2022-12-26T00:51:46.827Z,99.90
2022-12-26T00:53:19.488Z,99.90
2022-12-26T00:54:51.098Z,99.90
2022-12-26T00:56:22.842Z,99.90
2022-12-26T00:57:55.823Z,99.90
2022-12-26T00:59:27.520Z,99.90
2022-12-26T01:01:20.788Z,99.90
2022-12-26T01:02:52.829Z,99.90
2022-12-26T01:04:24.517Z,99.90
2022-12-26T01:05:56.183Z,99.90
2022-12-26T01:07:27.825Z,99.90
2022-12-26T01:08:59.637Z,99.90
2022-12-26T01:10:31.666Z,99.90
2022-12-26T01:12:03.463Z,99.90
2022-12-26T01:13:35.541Z,99.90
2022-12-26T01:15:08.164Z,99.90
2022-12-26T01:16:41.387Z,99.90
2022-12-26T01:18:13.094Z,99.90
2022-12-26T01:19:44.784Z,99.90
2022-12-26T01:21:16.447Z,99.90
2022-12-26T01:22:48.064Z,99.90
2022-12-26T01:24:19.758Z,99.90
2022-12-26T01:26:17.014Z,99.90
2022-12-26T01:27:43.020Z,99.90
2022-12-26T01:29:14.640Z,99.90
2022-12-26T01:30:46.621Z,99.90
2022-12-26T01:32:18.817Z,99.90
2022-12-26T01:33:50.607Z,99.90
2022-12-26T01:35:22.281Z,99.90
2022-12-26T01:36:54.336Z,99.90
2022-12-26T01:38:26.121Z,99.90
2022-12-26T01:39:57.777Z,99.90
2022-12-26T01:41:30.248Z,99.90
2022-12-26T01:43:02.664Z,99.90
2022-12-26T01:45:22.225Z,99.90
2022-12-26T01:46:53.905Z,99.90
2022-12-26T01:48:34.301Z,99.90
2022-12-26T01:50:10.111Z,99.90
2022-12-26T01:51:47.258Z,99.90
2022-12-26T01:53:24.408Z,99.90
2022-12-26T01:54:56.700Z,99.90
2022-12-26T01:56:37.069Z,99.90
2022-12-26T01:58:14.322Z,99.90
2022-12-26T01:59:47.431Z,99.90
2022-12-26T02:01:20.805Z,99.90
2022-12-26T02:03:11.591Z,99.90
2022-12-26T02:05:06.888Z,99.90
2022-12-26T02:06:38.892Z,99.90
2022-12-26T02:08:19.183Z,99.90
2022-12-26T02:09:50.968Z,99.90
2022-12-26T02:12:33.962Z,99.90
2022-12-26T02:14:02.097Z,99.90
2022-12-26T02:15:33.792Z,99.90
2022-12-26T02:17:05.661Z,99.90
2022-12-26T02:18:37.395Z,99.90
2022-12-26T02:20:33.681Z,99.90
2022-12-26T02:22:20.520Z,99.90
2022-12-26T02:24:13.034Z,99.90
2022-12-26T02:26:10.669Z,99.90
2022-12-26T02:28:32.192Z,99.90
2022-12-26T02:30:18.934Z,99.90
2022-12-26T02:31:57.416Z,99.90
2022-12-26T02:33:34.877Z,99.90
2022-12-26T02:35:34.337Z,99.90
2022-12-26T02:37:18.526Z,99.90
2022-12-26T02:39:44.029Z,99.90
2022-12-26T02:41:23.387Z,99.90
2022-12-26T02:43:00.032Z,99.90
2022-12-26T02:45:06.885Z,99.90
2022-12-26T02:47:05.434Z,99.90
2022-12-26T02:48:52.904Z,99.90
2022-12-26T02:51:06.357Z,99.90
2022-12-26T02:53:33.757Z,99.90
2022-12-26T02:55:34.886Z,99.90
2022-12-26T02:57:30.097Z,99.90
2022-12-26T02:59:55.333Z,99.90
2022-12-26T03:01:57.652Z,99.90
2022-12-26T03:03:51.665Z,99.90
2022-12-26T03:05:49.035Z,99.90
2022-12-26T03:07:47.940Z,99.90
2022-12-26T03:09:48.474Z,99.90
2022-12-26T03:11:39.105Z,99.90
2022-12-26T03:13:17.177Z,99.90
2022-12-26T03:14:54.537Z,99.90
2022-12-26T03:16:45.876Z,99.90
2022-12-26T03:18:19.098Z,99.90
2022-12-26T03:20:20.731Z,99.90
2022-12-26T03:21:53.084Z,99.90
2022-12-26T03:23:24.903Z,99.90
2022-12-26T03:25:16.655Z,99.90
2022-12-26T03:26:53.913Z,99.90
2022-12-26T03:28:26.039Z,99.90
2022-12-26T03:30:16.479Z,99.90
2022-12-26T03:31:48.128Z,99.90
2022-12-26T03:33:47.349Z,99.90
2022-12-26T03:35:20.353Z,99.90
2022-12-26T03:37:09.888Z,99.90
2022-12-26T03:38:55.275Z,99.90
2022-12-26T03:41:05.088Z,99.90
2022-12-26T03:43:17.453Z,99.90
2022-12-26T03:45:27.769Z,99.90
2022-12-26T03:47:29.722Z,99.90
2022-12-26T03:49:51.639Z,99.90
2022-12-26T03:51:53.801Z,99.90
2022-12-26T03:53:55.778Z,99.90
2022-12-26T03:56:00.710Z,99.90
2022-12-26T03:58:08.242Z,99.90
2022-12-26T04:00:32.421Z,99.90
2022-12-26T04:02:26.146Z,99.90
2022-12-26T04:04:19.317Z,99.90
2022-12-26T04:06:12.028Z,99.90
2022-12-26T04:08:13.404Z,99.90
2022-12-26T04:10:12.301Z,99.90
2022-12-26T04:12:04.141Z,99.90
2022-12-26T04:14:17.230Z,99.90
2022-12-26T04:16:23.709Z,99.90
2022-12-26T04:18:22.707Z,99.90
2022-12-26T04:20:01.595Z,99.90
2022-12-26T04:22:06.974Z,99.90
2022-12-26T04:24:04.126Z,99.90
2022-12-26T04:26:07.210Z,99.90
2022-12-26T04:27:57.781Z,99.90
2022-12-26T04:29:48.711Z,99.90
2022-12-26T04:32:05.318Z,99.90
2022-12-26T04:34:04.086Z,99.90
2022-12-26T04:36:13.857Z,99.90
2022-12-26T04:38:05.304Z,99.90
2022-12-26T04:39:58.885Z,99.90
2022-12-26T04:41:51.918Z,99.90
2022-12-26T04:43:49.477Z,99.90
2022-12-26T04:45:23.521Z,99.90
2022-12-26T04:46:56.540Z,99.90
2022-12-26T04:48:46.993Z,99.90
2022-12-26T04:50:18.792Z,99.90
2022-12-26T04:51:51.117Z,99.90
2022-12-26T04:53:22.970Z,99.90
2022-12-26T04:54:54.624Z,99.90
2022-12-26T04:56:26.291Z,99.90
2022-12-26T04:57:58.835Z,99.90
2022-12-26T04:59:30.658Z,99.90
2022-12-26T05:01:21.006Z,99.90
2022-12-26T05:03:17.983Z,99.90
2022-12-26T05:05:08.660Z,99.90
2022-12-26T05:06:59.121Z,99.90
2022-12-26T05:08:52.518Z,99.90
2022-12-26T05:10:27.246Z,99.90
2022-12-26T05:11:58.865Z,99.90
2022-12-26T05:13:30.468Z,99.90
2022-12-26T05:15:02.131Z,99.90
2022-12-26T05:16:52.456Z,99.90
2022-12-26T05:18:43.072Z,99.90
2022-12-26T05:20:49.836Z,99.90
2022-12-26T05:22:40.909Z,99.90
2022-12-26T05:24:31.511Z,99.90
2022-12-26T05:26:22.690Z,99.90
2022-12-26T05:28:12.894Z,99.90
2022-12-26T05:29:44.542Z,99.90
2022-12-26T05:31:17.819Z,99.90
2022-12-26T05:33:08.544Z,99.90
2022-12-26T05:34:40.200Z,99.90
2022-12-26T05:36:13.193Z,99.90
2022-12-26T05:37:45.325Z,99.90
2022-12-26T05:39:17.344Z,99.90
2022-12-26T05:40:49.036Z,99.90
2022-12-26T05:42:20.636Z,99.90
2022-12-26T05:43:52.261Z,99.90
2022-12-26T05:45:23.946Z,99.90
2022-12-26T05:46:55.614Z,99.90
2022-12-26T05:48:27.538Z,99.90
2022-12-26T05:49:59.213Z,99.90
2022-12-26T05:51:31.136Z,99.90
2022-12-26T05:53:04.037Z,99.90
2022-12-26T05:54:35.737Z,99.90
2022-12-26T05:56:13.053Z,99.90
2022-12-26T05:57:44.691Z,99.90
2022-12-26T05:59:16.346Z,99.90
2022-12-26T06:00:48.072Z,99.90
2022-12-26T06:02:19.923Z,99.90
2022-12-26T06:03:54.710Z,99.90
2022-12-26T06:05:26.503Z,99.90
2022-12-26T06:06:58.120Z,99.90
2022-12-26T06:08:29.789Z,99.90
2022-12-26T06:10:01.499Z,99.90
2022-12-26T06:11:33.125Z,99.90
2022-12-26T06:13:04.794Z,99.90
2022-12-26T06:14:36.414Z,99.90
2022-12-26T06:16:11.381Z,99.90
2022-12-26T06:17:43.100Z,99.90
2022-12-26T06:19:14.728Z,99.90
2022-12-26T06:20:46.357Z,99.90
2022-12-26T06:22:17.976Z,99.90
2022-12-26T06:23:50.090Z,99.90
2022-12-26T06:25:21.792Z,99.90
2022-12-26T06:26:53.824Z,99.90
2022-12-26T06:28:25.716Z,99.90
2022-12-26T06:29:57.369Z,99.90
2022-12-26T06:31:29.092Z,99.90
2022-12-26T06:33:00.788Z,99.90
2022-12-26T06:34:32.474Z,99.90
2022-12-26T06:36:18.169Z,99.90
2022-12-26T06:37:49.794Z,99.90
2022-12-26T06:39:22.315Z,99.90
2022-12-26T06:40:53.934Z,99.90
2022-12-26T06:42:25.603Z,99.90
2022-12-26T06:43:57.323Z,99.90
2022-12-26T06:45:28.961Z,99.90
2022-12-26T06:47:00.677Z,99.90
2022-12-26T06:48:33.556Z,99.90
2022-12-26T06:50:05.638Z,99.90
2022-12-26T06:51:37.412Z,99.90
2022-12-26T06:53:09.056Z,99.90
2022-12-26T06:54:41.161Z,99.90
2022-12-26T06:56:18.298Z,99.90
2022-12-26T06:57:52.546Z,99.90
2022-12-26T06:59:24.426Z,99.90
2022-12-26T07:00:56.278Z,99.90
2022-12-26T07:02:28.026Z,99.90
2022-12-26T07:04:00.822Z,99.90
2022-12-26T07:05:35.607Z,99.90
2022-12-26T07:07:07.234Z,99.90
2022-12-26T07:08:39.188Z,99.90
2022-12-26T07:10:10.998Z,99.90
2022-12-26T07:11:44.997Z,99.90
2022-12-26T07:13:16.654Z,99.90
2022-12-26T07:14:48.650Z,99.90
2022-12-26T07:16:20.431Z,99.90
2022-12-26T07:17:52.445Z,99.90
2022-12-26T07:19:24.146Z,99.90
2022-12-26T07:20:55.783Z,99.90
2022-12-26T07:22:28.211Z,99.90
2022-12-26T07:23:59.976Z,99.90
2022-12-26T07:25:31.638Z,99.90
2022-12-26T07:27:03.240Z,99.90
2022-12-26T07:28:35.425Z,99.90
2022-12-26T07:30:07.872Z,99.90
2022-12-26T07:31:40.632Z,99.90
2022-12-26T07:33:12.290Z,99.90
2022-12-26T07:34:44.300Z,99.90
2022-12-26T07:36:16.786Z,99.90
2022-12-26T07:37:48.818Z,99.90
2022-12-26T07:39:20.581Z,99.90
2022-12-26T07:40:58.066Z,99.90
2022-12-26T07:42:29.743Z,99.90
2022-12-26T07:44:01.833Z,99.90
2022-12-26T07:45:33.516Z,99.90
2022-12-26T07:47:05.225Z,99.90
2022-12-26T07:48:36.848Z,99.90
2022-12-26T07:50:10.178Z,99.90
2022-12-26T07:51:43.029Z,99.90
2022-12-26T07:53:15.302Z,99.90
2022-12-26T07:54:46.951Z,99.90
2022-12-26T07:56:18.686Z,99.90
2022-12-26T07:57:51.772Z,99.90
2022-12-26T07:59:23.507Z,99.90
2022-12-26T08:00:55.445Z,99.90
2022-12-26T08:02:28.483Z,99.90
2022-12-26T08:04:00.409Z,99.90
2022-12-26T08:05:32.649Z,99.90
2022-12-26T08:07:04.274Z,99.90
2022-12-26T08:08:37.210Z,99.90
2022-12-26T08:10:09.277Z,99.90
2022-12-26T08:11:40.939Z,99.90
2022-12-26T08:13:13.659Z,99.90
2022-12-26T08:14:45.277Z,99.90
2022-12-26T08:16:17.524Z,99.90
2022-12-26T08:17:49.226Z,99.90
2022-12-26T08:19:20.866Z,99.90
2022-12-26T08:20:52.984Z,99.90
2022-12-26T08:22:24.735Z,99.90
2022-12-26T08:23:56.368Z,99.90
2022-12-26T08:25:28.020Z,99.90
2022-12-26T08:26:59.644Z,99.90
2022-12-26T08:28:31.373Z,99.90
2022-12-26T08:30:03.311Z,99.90
2022-12-26T08:31:34.942Z,99.90
2022-12-26T08:33:07.147Z,99.90
2022-12-26T08:34:38.798Z,99.90
2022-12-26T08:36:12.818Z,99.90
2022-12-26T08:37:44.480Z,99.90
2022-12-26T08:39:16.113Z,99.90
2022-12-26T08:40:55.963Z,99.90
2022-12-26T08:42:28.068Z,99.90
2022-12-26T08:46:03.371Z,99.90
2022-12-26T08:47:35.090Z,99.90
2022-12-26T08:49:06.726Z,99.90
2022-12-26T08:50:41.420Z,99.90
2022-12-26T08:52:13.295Z,99.90
2022-12-26T08:53:45.932Z,99.90
2022-12-26T08:55:17.760Z,99.90
2022-12-26T08:56:49.397Z,99.90
2022-12-26T08:58:21.221Z,99.90
2022-12-26T08:59:52.887Z,99.90
2022-12-26T09:01:27.224Z,99.90
2022-12-26T09:02:59.003Z,99.90
2022-12-26T09:04:30.674Z,99.90
2022-12-26T09:06:06.248Z,99.90
2022-12-26T09:07:38.356Z,99.90
2022-12-26T09:09:11.887Z,99.90
2022-12-26T09:10:43.624Z,99.90
2022-12-26T09:12:15.287Z,99.90
2022-12-26T09:13:48.053Z,99.90
2022-12-26T09:15:19.665Z,99.90
2022-12-26T09:16:52.936Z,99.90
2022-12-26T09:18:24.683Z,99.90
2022-12-26T09:19:56.286Z,99.90
2022-12-26T09:21:29.303Z,99.90
2022-12-26T09:23:01.021Z,99.90
2022-12-26T09:24:32.669Z,99.90
2022-12-26T09:26:09.975Z,99.90
2022-12-26T09:27:41.634Z,99.90
2022-12-26T09:29:13.720Z,99.90
2022-12-26T09:30:45.455Z,99.90
2022-12-26T09:32:17.162Z,99.90
2022-12-26T09:33:49.631Z,99.90
2022-12-26T09:35:21.343Z,99.90
2022-12-26T09:36:52.980Z,99.90
2022-12-26T09:38:25.118Z,99.90
2022-12-26T09:39:56.730Z,99.90
2022-12-26T09:41:45.981Z,99.90
2022-12-26T09:43:29.891Z,99.90
2022-12-26T09:45:16.713Z,99.90
2022-12-26T09:47:29.666Z,99.90
2022-12-26T09:49:11.013Z,99.90
2022-12-26T09:50:43.566Z,99.90
2022-12-26T09:55:51.934Z,99.90
2022-12-26T09:57:37.937Z,99.90
2022-12-26T09:59:16.835Z,99.90
2022-12-26T10:01:20.986Z,99.90
2022-12-26T10:02:55.277Z,99.90
2022-12-26T10:04:30.633Z,99.90
2022-12-26T10:06:22.039Z,99.90
2022-12-26T10:08:01.329Z,99.90
2022-12-26T10:09:48.343Z,99.90
2022-12-26T10:11:50.946Z,99.90
2022-12-26T10:13:56.535Z,99.90
2022-12-26T10:15:46.632Z,99.80
2022-12-26T10:17:23.538Z,99.80
2022-12-26T10:19:28.707Z,99.80
2022-12-26T10:21:09.910Z,99.90
2022-12-26T10:23:00.110Z,99.70
2022-12-26T10:24:36.176Z,99.70
2022-12-26T10:26:32.531Z,99.80
2022-12-26T10:28:05.978Z,99.70
2022-12-26T10:29:41.818Z,99.60
2022-12-26T10:31:22.886Z,99.70
2022-12-26T10:33:09.257Z,99.60
2022-12-26T10:34:44.140Z,99.70
2022-12-26T10:36:36.888Z,99.40
2022-12-26T10:38:33.795Z,99.30
2022-12-26T10:40:26.980Z,99.40
2022-12-26T10:42:23.201Z,99.30
2022-12-26T10:43:55.200Z,99.30
2022-12-26T10:45:45.115Z,99.10
2022-12-26T10:47:25.405Z,99.00
2022-12-26T10:48:57.480Z,99.00
2022-12-26T10:50:32.056Z,99.10
2022-12-26T10:52:04.879Z,98.90
2022-12-26T10:53:41.631Z,98.80
2022-12-26T10:55:28.650Z,98.90
2022-12-26T10:57:02.779Z,99.00
2022-12-26T10:58:37.291Z,99.10
2022-12-26T11:00:20.847Z,99.00
2022-12-26T11:01:52.602Z,98.70
2022-12-26T11:03:24.492Z,98.40
2022-12-26T11:05:33.190Z,98.50
2022-12-26T11:06:52.670Z,98.40
2022-12-26T11:08:59.614Z,98.20
2022-12-26T11:10:31.461Z,98.20
2022-12-26T11:12:04.456Z,98.20
2022-12-26T11:13:40.190Z,98.20
2022-12-26T11:15:28.770Z,98.00
2022-12-26T11:17:07.712Z,98.10
2022-12-26T11:18:50.415Z,98.00
2022-12-26T11:20:26.435Z,97.80
2022-12-26T11:22:24.710Z,97.70
2022-12-26T11:24:08.407Z,97.70
2022-12-26T11:25:54.952Z,97.60
2022-12-26T11:27:26.584Z,97.50
2022-12-26T11:29:21.829Z,97.60
2022-12-26T11:30:54.388Z,97.50
2022-12-26T11:32:27.457Z,97.10
2022-12-26T11:34:01.276Z,97.10
2022-12-26T11:35:37.137Z,97.20
2022-12-26T11:37:28.422Z,97.40
2022-12-26T11:39:07.891Z,96.80
2022-12-26T11:41:13.294Z,96.90
2022-12-26T11:42:50.804Z,96.90
2022-12-26T11:44:30.412Z,96.80
2022-12-26T11:46:02.206Z,96.80
2022-12-26T11:47:33.867Z,96.50
2022-12-26T11:49:07.119Z,96.50
2022-12-26T11:50:46.311Z,96.50
2022-12-26T11:52:43.041Z,96.60
2022-12-26T11:54:22.707Z,96.60
2022-12-26T11:56:00.982Z,96.60
2022-12-26T11:57:33.769Z,96.60
2022-12-26T11:59:23.757Z,96.60
2022-12-26T12:01:01.262Z,96.40
2022-12-26T12:02:34.034Z,96.40
2022-12-26T12:04:05.707Z,96.50
2022-12-26T12:05:45.994Z,96.50
2022-12-26T12:07:39.620Z,96.60
2022-12-26T12:09:46.126Z,96.40
2022-12-26T12:11:41.504Z,96.40
2022-12-26T12:13:21.885Z,96.40
2022-12-26T12:15:09.976Z,96.50
2022-12-26T12:16:56.618Z,96.40
2022-12-26T12:18:59.527Z,96.30
2022-12-26T12:21:12.508Z,95.60
2022-12-26T12:23:20.541Z,94.40
2022-12-26T12:25:01.041Z,94.00
2022-12-26T12:27:04.789Z,93.00
2022-12-26T12:28:54.767Z,93.20
2022-12-26T12:30:37.508Z,93.50
2022-12-26T12:32:21.301Z,93.50
2022-12-26T12:34:14.944Z,93.30
2022-12-26T12:36:10.393Z,93.70
2022-12-26T12:38:10.489Z,93.70
2022-12-26T12:40:06.831Z,93.20
2022-12-26T12:42:16.503Z,93.60
2022-12-26T12:44:00.001Z,93.20
2022-12-26T12:46:22.406Z,93.00
2022-12-26T12:48:22.173Z,93.20
2022-12-26T12:50:27.449Z,93.00
2022-12-26T12:52:11.126Z,93.20
2022-12-26T12:54:00.571Z,93.40
2022-12-26T12:55:50.640Z,92.90
2022-12-26T12:57:33.369Z,92.20
2022-12-26T12:59:07.747Z,92.90
2022-12-26T13:00:48.705Z,92.60
2022-12-26T13:02:29.874Z,93.00
2022-12-26T13:04:01.568Z,92.30
2022-12-26T13:05:54.413Z,92.90
2022-12-26T13:07:32.837Z,93.20
2022-12-26T13:09:21.181Z,93.00
2022-12-26T13:11:17.466Z,92.70
2022-12-26T13:12:51.516Z,92.90
2022-12-26T13:14:24.619Z,92.90
2022-12-26T13:16:05.648Z,92.80
2022-12-26T13:18:01.919Z,92.60
2022-12-26T13:19:50.009Z,92.20
2022-12-26T13:21:24.554Z,92.60
2022-12-26T13:23:20.589Z,92.60
2022-12-26T13:25:01.287Z,91.60
2022-12-26T13:26:39.840Z,91.90
2022-12-26T13:28:29.161Z,91.70
2022-12-26T13:30:00.899Z,92.30
2022-12-26T13:31:34.499Z,91.60
2022-12-26T13:33:06.362Z,90.80
2022-12-26T13:34:38.181Z,91.80
2022-12-26T13:36:10.181Z,91.50
2022-12-26T13:37:41.756Z,90.70
2022-12-26T13:39:23.760Z,91.30
2022-12-26T13:41:23.092Z,91.30
2022-12-26T13:43:20.427Z,90.50
2022-12-26T13:44:53.566Z,90.70
2022-12-26T13:46:55.503Z,90.60
2022-12-26T13:48:27.265Z,90.20
2022-12-26T13:49:59.227Z,89.80
2022-12-26T13:51:43.213Z,90.50
2022-12-26T13:53:27.095Z,90.70
2022-12-26T13:55:13.510Z,89.90
2022-12-26T13:57:18.639Z,90.50
2022-12-26T13:59:24.730Z,90.10
2022-12-26T14:01:05.596Z,90.70
2022-12-26T14:03:21.008Z,91.10
2022-12-26T14:05:32.327Z,90.30
2022-12-26T14:07:25.396Z,91.10
2022-12-26T14:09:20.424Z,90.70
2022-12-26T14:11:05.815Z,90.40
2022-12-26T14:12:56.329Z,90.50
2022-12-26T14:14:49.465Z,90.40
2022-12-26T14:16:41.224Z,90.20
2022-12-26T14:18:31.013Z,88.70
2022-12-26T14:20:05.696Z,89.40
2022-12-26T14:21:49.064Z,89.80
2022-12-26T14:23:33.164Z,89.50
2022-12-26T14:25:18.762Z,89.40
2022-12-26T14:27:08.401Z,89.30
2022-12-26T14:29:04.919Z,89.00
2022-12-26T14:31:04.781Z,88.90
2022-12-26T14:32:47.072Z,89.40
2022-12-26T14:34:47.346Z,88.10
2022-12-26T14:36:43.837Z,88.20
2022-12-26T14:38:37.489Z,88.00
2022-12-26T14:40:18.707Z,87.90
2022-12-26T14:42:26.959Z,88.70
2022-12-26T14:44:29.089Z,88.50
2022-12-26T14:46:02.493Z,88.00
2022-12-26T14:47:48.373Z,88.00
2022-12-26T14:49:35.486Z,87.50
2022-12-26T14:51:19.687Z,87.90
2022-12-26T14:52:51.445Z,88.60
2022-12-26T14:54:24.590Z,88.50
2022-12-26T14:56:24.928Z,88.20
2022-12-26T14:57:56.856Z,87.70
2022-12-26T14:59:31.935Z,87.50
2022-12-26T15:01:09.500Z,88.00
2022-12-26T15:02:46.332Z,87.60
2022-12-26T15:04:36.758Z,87.90
2022-12-26T15:06:20.401Z,88.00
2022-12-26T15:08:14.005Z,87.60
2022-12-26T15:10:22.549Z,87.30
2022-12-26T15:12:18.863Z,87.20
2022-12-26T15:14:21.802Z,86.50
2022-12-26T15:16:14.060Z,86.30
2022-12-26T15:17:57.755Z,86.70
2022-12-26T15:20:10.705Z,86.60
2022-12-26T15:22:39.001Z,86.10
2022-12-26T15:25:17.097Z,86.20
2022-12-26T15:26:50.671Z,86.30
2022-12-26T15:28:59.562Z,88.00
2022-12-26T15:30:45.256Z,86.70
2022-12-26T15:32:36.861Z,86.50
2022-12-26T15:34:11.479Z,85.20
2022-12-26T15:36:33.529Z,87.00
2022-12-26T15:38:21.239Z,87.20
2022-12-26T15:40:24.028Z,88.10
2022-12-26T15:42:04.080Z,87.00
2022-12-26T15:43:47.862Z,87.30
2022-12-26T15:45:53.548Z,87.00
2022-12-26T15:47:37.583Z,87.30
2022-12-26T15:49:54.110Z,87.20
2022-12-26T15:51:43.926Z,87.50
2022-12-26T15:53:56.025Z,86.60
2022-12-26T15:55:40.583Z,86.80
2022-12-26T15:57:30.355Z,85.70
2022-12-26T15:59:20.491Z,86.20
2022-12-26T16:00:54.460Z,86.20
2022-12-26T16:02:26.191Z,86.20
2022-12-26T16:04:00.450Z,86.50
2022-12-26T16:05:48.646Z,86.80
2022-12-26T16:07:30.550Z,85.30
2022-12-26T16:09:15.113Z,86.70
2022-12-26T16:10:51.186Z,85.30
2022-12-26T16:12:33.958Z,85.70
2022-12-26T16:14:10.602Z,86.10
2022-12-26T16:16:00.498Z,86.40
2022-12-26T16:17:32.250Z,85.40
2022-12-26T16:19:26.622Z,86.20
2022-12-26T16:21:24.290Z,84.60
2022-12-26T16:22:55.978Z,85.00
2022-12-26T16:24:28.131Z,86.10
2022-12-26T16:26:00.796Z,84.20
2022-12-26T16:27:32.545Z,84.70
2022-12-26T16:29:05.671Z,84.60
2022-12-26T16:30:38.335Z,84.70
2022-12-26T16:32:21.996Z,84.70
2022-12-26T16:33:57.121Z,85.30
2022-12-26T16:35:33.018Z,85.10
2022-12-26T16:37:05.050Z,84.30
2022-12-26T16:38:37.990Z,84.40
2022-12-26T16:40:12.791Z,85.60
2022-12-26T16:41:58.787Z,84.10
2022-12-26T16:43:34.438Z,84.90
2022-12-26T16:45:12.733Z,84.80
2022-12-26T16:46:44.784Z,84.00
2022-12-26T16:48:20.712Z,84.00
2022-12-26T16:49:53.262Z,85.30
2022-12-26T16:51:46.159Z,85.20
2022-12-26T16:53:42.200Z,84.80
2022-12-26T16:55:34.699Z,84.70
2022-12-26T16:57:18.729Z,85.80
2022-12-26T16:59:01.186Z,83.80
2022-12-26T17:00:35.690Z,83.30
2022-12-26T17:02:19.638Z,84.30
2022-12-26T17:04:03.196Z,85.00
2022-12-26T17:05:37.871Z,84.90
2022-12-26T17:07:15.487Z,85.10
2022-12-26T17:08:49.943Z,83.80
2022-12-26T17:10:30.566Z,84.40
2022-12-26T17:12:07.590Z,84.30
2022-12-26T17:13:40.943Z,84.00
2022-12-26T17:15:27.277Z,84.10
2022-12-26T17:17:03.808Z,85.10
2022-12-26T17:19:09.350Z,84.30
2022-12-26T17:20:41.120Z,84.90
2022-12-26T17:22:15.452Z,84.80
2022-12-26T17:24:05.708Z,84.20
2022-12-26T17:25:37.353Z,83.50
2022-12-26T17:27:17.317Z,83.50
2022-12-26T17:28:49.633Z,83.00
2022-12-26T17:30:29.384Z,83.90
2022-12-26T17:32:01.064Z,83.40
2022-12-26T17:33:33.541Z,84.20
2022-12-26T17:35:18.584Z,84.50
2022-12-26T17:37:18.297Z,85.20
2022-12-26T17:38:44.700Z,84.00
2022-12-26T17:40:16.254Z,84.20
2022-12-26T17:41:55.132Z,84.00
2022-12-26T17:43:35.677Z,84.20
2022-12-26T17:45:14.169Z,84.30
2022-12-26T17:46:45.841Z,85.00
2022-12-26T17:48:17.870Z,83.70
2022-12-26T17:49:51.601Z,84.90
2022-12-26T17:51:23.976Z,85.00
2022-12-26T17:53:05.386Z,84.50
2022-12-26T17:54:37.047Z,85.70
2022-12-26T17:56:15.706Z,85.50
2022-12-26T17:57:47.622Z,85.70
2022-12-26T17:59:19.439Z,85.70
2022-12-26T18:00:52.037Z,83.40
2022-12-26T18:02:24.075Z,83.80
2022-12-26T18:03:57.326Z,85.10
2022-12-26T18:05:29.015Z,85.30
2022-12-26T18:07:00.630Z,84.90
2022-12-26T18:08:38.244Z,84.70
2022-12-26T18:10:30.604Z,85.60
2022-12-26T18:12:02.247Z,85.40
2022-12-26T18:13:34.449Z,84.90
2022-12-26T18:15:06.390Z,84.60
2022-12-26T18:16:38.065Z,85.80
2022-12-26T18:18:35.870Z,85.20
2022-12-26T18:20:08.471Z,85.50
2022-12-26T18:21:40.219Z,85.40
2022-12-26T18:23:12.159Z,83.80
2022-12-26T18:24:44.662Z,83.70
2022-12-26T18:26:27.102Z,84.20
2022-12-26T18:27:59.542Z,85.50
2022-12-26T18:29:31.159Z,84.80
2022-12-26T18:31:02.882Z,83.70
2022-12-26T18:32:34.509Z,83.70
2022-12-26T18:34:06.808Z,83.70
2022-12-26T18:35:40.208Z,84.30
2022-12-26T18:37:12.144Z,85.10
2022-12-26T18:38:44.147Z,83.80
2022-12-26T18:40:32.758Z,83.10
2022-12-26T18:42:06.441Z,83.40
2022-12-26T18:43:38.274Z,83.90
2022-12-26T18:45:09.924Z,82.80
2022-12-26T18:46:41.632Z,83.60
2022-12-26T18:48:15.543Z,84.00
2022-12-26T18:49:48.014Z,82.60
2022-12-26T18:51:23.494Z,83.20
2022-12-26T18:52:55.825Z,82.70
2022-12-26T18:54:27.468Z,82.90
2022-12-26T18:55:59.168Z,82.70
2022-12-26T18:57:30.926Z,82.20
2022-12-26T18:59:02.701Z,84.00
2022-12-26T19:00:35.932Z,84.20
2022-12-26T19:02:15.764Z,83.80
2022-12-26T19:03:47.948Z,82.70
2022-12-26T19:05:31.412Z,83.10
2022-12-26T19:07:03.028Z,83.20
2022-12-26T19:08:34.719Z,82.60
2022-12-26T19:10:09.911Z,84.30
2022-12-26T19:11:42.489Z,83.30
2022-12-26T19:13:14.385Z,83.20
2022-12-26T19:14:46.395Z,82.40
2022-12-26T19:16:18.114Z,82.70
2022-12-26T19:17:49.817Z,82.50
2022-12-26T19:19:21.514Z,83.50
2022-12-26T19:20:53.161Z,82.20
2022-12-26T19:22:25.125Z,82.90
2022-12-26T19:23:56.991Z,83.10
2022-12-26T19:25:28.662Z,83.80
2022-12-26T19:27:01.547Z,83.20
2022-12-26T19:28:33.241Z,83.50
2022-12-26T19:30:05.440Z,83.30
2022-12-26T19:31:37.090Z,83.10
2022-12-26T19:33:08.803Z,82.10
2022-12-26T19:34:40.576Z,82.40
2022-12-26T19:36:14.326Z,82.20
2022-12-26T19:37:46.085Z,82.80
2022-12-26T19:39:17.765Z,83.70
2022-12-26T19:40:49.504Z,83.80
2022-12-26T19:42:21.183Z,82.90
2022-12-26T19:43:59.495Z,82.90
2022-12-26T19:45:31.188Z,82.70
2022-12-26T19:47:12.333Z,82.70
2022-12-26T19:48:44.666Z,82.50
2022-12-26T19:50:16.398Z,82.40
2022-12-26T19:51:48.124Z,81.80
2022-12-26T19:53:19.748Z,82.70
2022-12-26T19:54:51.391Z,83.40
2022-12-26T19:56:26.109Z,82.30
2022-12-26T19:57:57.839Z,81.80
2022-12-26T19:59:29.517Z,81.50
2022-12-26T20:01:12.956Z,82.30
2022-12-26T20:02:45.714Z,81.60
2022-12-26T20:04:17.748Z,82.40
2022-12-26T20:05:49.401Z,82.10
2022-12-26T20:07:21.050Z,81.40
2022-12-26T20:08:55.686Z,81.40
2022-12-26T20:10:27.373Z,83.50
2022-12-26T20:11:59.045Z,82.10
2022-12-26T20:13:30.650Z,82.80
2022-12-26T20:15:02.399Z,82.30
2022-12-26T20:18:26.291Z,81.60
2022-12-26T20:19:57.909Z,81.70
2022-12-26T20:21:29.646Z,81.60
2022-12-26T20:23:01.267Z,83.00
2022-12-26T20:24:33.740Z,81.90
2022-12-26T20:26:08.757Z,82.20
2022-12-26T20:27:43.339Z,82.30
2022-12-26T20:29:15.363Z,81.50
2022-12-26T20:30:57.942Z,81.30
2022-12-26T20:32:29.655Z,82.20
2022-12-26T20:34:02.467Z,81.80
2022-12-26T20:35:34.110Z,81.40
2022-12-26T20:37:05.748Z,82.50
2022-12-26T20:38:38.211Z,81.70
2022-12-26T20:40:10.476Z,82.40
2022-12-26T20:41:42.233Z,81.30
2022-12-26T20:43:13.891Z,82.10
2022-12-26T20:44:45.668Z,81.40
2022-12-26T20:46:20.668Z,81.90
2022-12-26T20:47:52.420Z,81.20
2022-12-26T20:49:24.101Z,82.00
2022-12-26T20:51:03.560Z,81.30
2022-12-26T20:52:35.338Z,81.40
2022-12-26T20:54:08.789Z,81.50
2022-12-26T20:55:40.437Z,81.30
2022-12-26T20:57:12.063Z,81.90
2022-12-26T20:58:44.515Z,80.80
2022-12-26T21:00:16.673Z,81.70
2022-12-26T21:01:48.399Z,81.80
2022-12-26T21:03:20.194Z,81.30
2022-12-26T21:04:52.780Z,81.10
2022-12-26T21:06:28.752Z,81.10
2022-12-26T21:08:00.359Z,81.50
2022-12-26T21:09:31.982Z,82.00
2022-12-26T21:11:07.695Z,81.30
2022-12-26T21:12:39.429Z,81.20
2022-12-26T21:14:17.711Z,81.90
2022-12-26T21:15:49.382Z,80.90
2022-12-26T21:17:21.699Z,81.20
2022-12-26T21:18:53.684Z,81.40
2022-12-26T21:20:25.442Z,80.60
2022-12-26T21:21:57.178Z,81.50
2022-12-26T21:23:28.844Z,81.30
2022-12-26T21:25:00.503Z,80.70
2022-12-26T21:26:35.150Z,81.10
2022-12-26T21:28:06.824Z,80.70
2022-12-26T21:29:38.744Z,80.70
2022-12-26T21:31:11.247Z,81.10
2022-12-26T21:32:42.964Z,80.70
2022-12-26T21:34:16.770Z,80.70
2022-12-26T21:35:52.904Z,80.60
2022-12-26T21:37:43.072Z,80.30